Decoded Metar for KPRC (PRESCOTT in AZ, USA) (IATA:PRC) | Meteo·Mobile Aviation Weather
aviador You're here:

KPRC Decoded Metar

PRESCOTT in AZ, USA
Report Time2018-12-11 02:53:00
UTC Time2018-12-11 03:13:03
Flight Rules vfr VFR
Wind240° at 05 kt
W.Decomp.*RWY 21: 4.8 kt HW 1.5 kt RCW
RWY 30: 1.5 kt HW 4.8 kt LCW
W.Rank240° ranks 8
Current wind is below 240° avg. (9.2)
Visibility9999 m
Phenomena:N/A
Clouds:N/A
Expected CloudBase > 2,800 ft AGL from Temp-Dew spread
CeilingNone
Temp06°C (ISA +1)
Dew Point-1°C (61% RH)
AAT2.1°C
QNH1021 hPa
Density Alt4,931 ft
Elevation5,000 ft
Report Wrong Elevation
Raw Report
KPRC 110253Z 24005KT 10SM CLR 06/M01 A3016 RMK AO2 SLP204
T00561011 50000=

Extra information for KPRC:More info

Metar Taf Metar & Taf Last 4 Metars F.Rules Stats Wind Profile Meteogram Temp Stats Airport Information Weather charts Add Link Nearby VenuesMetar ALERT Operation Metar Decoded Social comments

AIRNAV info for KPRC